sensor_id;sensor_type;location;lat;lon;timestamp;P1;durP1;ratioP1;P2;durP2;ratioP2
43337;SDS011;28933;52.492;13.434;2022-08-21T00:00:27;11.32;;;5.97;;
43337;SDS011;28933;52.492;13.434;2022-08-21T00:02:58;8.40;;;5.68;;
43337;SDS011;28933;52.492;13.434;2022-08-21T00:05:26;10.82;;;7.40;;
43337;SDS011;28933;52.492;13.434;2022-08-21T00:07:52;9.95;;;6.38;;
43337;SDS011;28933;52.492;13.434;2022-08-21T00:10:20;7.80;;;5.50;;
43337;SDS011;28933;52.492;13.434;2022-08-21T00:12:46;7.90;;;5.82;;
43337;SDS011;28933;52.492;13.434;2022-08-21T00:15:14;8.88;;;5.78;;
43337;SDS011;28933;52.492;13.434;2022-08-21T00:17:43;11.20;;;6.15;;
43337;SDS011;28933;52.492;13.434;2022-08-21T00:20:10;9.90;;;5.97;;
43337;SDS011;28933;52.492;13.434;2022-08-21T00:22:37;8.18;;;6.72;;
43337;SDS011;28933;52.492;13.434;2022-08-21T00:25:04;7.38;;;5.53;;
43337;SDS011;28933;52.492;13.434;2022-08-21T00:27:32;9.35;;;5.93;;
43337;SDS011;28933;52.492;13.434;2022-08-21T00:29:58;7.60;;;5.40;;
43337;SDS011;28933;52.492;13.434;2022-08-21T00:32:25;8.38;;;5.55;;
43337;SDS011;28933;52.492;13.434;2022-08-21T00:34:54;6.75;;;5.10;;
43337;SDS011;28933;52.492;13.434;2022-08-21T00:37:20;7.47;;;5.65;;
43337;SDS011;28933;52.492;13.434;2022-08-21T00:39:47;7.45;;;5.20;;
43337;SDS011;28933;52.492;13.434;2022-08-21T00:42:15;7.03;;;5.47;;
43337;SDS011;28933;52.492;13.434;2022-08-21T00:44:44;8.30;;;5.47;;
43337;SDS011;28933;52.492;13.434;2022-08-21T00:47:12;8.75;;;5.75;;
43337;SDS011;28933;52.492;13.434;2022-08-21T00:49:38;8.45;;;5.00;;
43337;SDS011;28933;52.492;13.434;2022-08-21T00:52:04;7.28;;;5.22;;
43337;SDS011;28933;52.492;13.434;2022-08-21T00:54:33;7.38;;;5.55;;
43337;SDS011;28933;52.492;13.434;2022-08-21T00:57:01;8.32;;;5.85;;
43337;SDS011;28933;52.492;13.434;2022-08-21T00:59:32;11.23;;;6.25;;
43337;SDS011;28933;52.492;13.434;2022-08-21T01:02:01;7.72;;;5.75;;
43337;SDS011;28933;52.492;13.434;2022-08-21T01:04:28;6.65;;;5.75;;
43337;SDS011;28933;52.492;13.434;2022-08-21T01:06:54;10.68;;;5.45;;
43337;SDS011;28933;52.492;13.434;2022-08-21T01:09:19;9.77;;;5.75;;
43337;SDS011;28933;52.492;13.434;2022-08-21T01:11:45;9.02;;;5.97;;
43337;SDS011;28933;52.492;13.434;2022-08-21T01:14:11;9.48;;;5.25;;
43337;SDS011;28933;52.492;13.434;2022-08-21T01:16:40;8.50;;;6.07;;
43337;SDS011;28933;52.492;13.434;2022-08-21T01:19:08;8.10;;;5.50;;
43337;SDS011;28933;52.492;13.434;2022-08-21T01:21:34;6.55;;;4.80;;
43337;SDS011;28933;52.492;13.434;2022-08-21T01:24:01;7.47;;;5.43;;
43337;SDS011;28933;52.492;13.434;2022-08-21T01:26:29;8.35;;;5.55;;
43337;SDS011;28933;52.492;13.434;2022-08-21T01:28:57;7.90;;;5.50;;
43337;SDS011;28933;52.492;13.434;2022-08-21T01:31:27;6.13;;;5.05;;
43337;SDS011;28933;52.492;13.434;2022-08-21T01:33:53;6.47;;;5.20;;
43337;SDS011;28933;52.492;13.434;2022-08-21T01:36:20;7.28;;;5.45;;
43337;SDS011;28933;52.492;13.434;2022-08-21T01:38:47;8.55;;;5.60;;
43337;SDS011;28933;52.492;13.434;2022-08-21T01:41:13;7.10;;;5.47;;
43337;SDS011;28933;52.492;13.434;2022-08-21T01:43:40;7.20;;;5.25;;
43337;SDS011;28933;52.492;13.434;2022-08-21T01:46:07;6.45;;;4.88;;
43337;SDS011;28933;52.492;13.434;2022-08-21T01:48:33;7.70;;;5.10;;
43337;SDS011;28933;52.492;13.434;2022-08-21T01:50:59;6.53;;;4.97;;
43337;SDS011;28933;52.492;13.434;2022-08-21T01:53:24;9.50;;;5.53;;
43337;SDS011;28933;52.492;13.434;2022-08-21T01:55:50;11.85;;;5.40;;
43337;SDS011;28933;52.492;13.434;2022-08-21T01:58:16;10.27;;;5.18;;
43337;SDS011;28933;52.492;13.434;2022-08-21T02:00:41;9.82;;;5.25;;
43337;SDS011;28933;52.492;13.434;2022-08-21T02:03:08;8.68;;;4.30;;
43337;SDS011;28933;52.492;13.434;2022-08-21T02:05:34;5.47;;;4.35;;
43337;SDS011;28933;52.492;13.434;2022-08-21T02:08:00;5.80;;;3.90;;
43337;SDS011;28933;52.492;13.434;2022-08-21T02:10:27;7.68;;;4.63;;
43337;SDS011;28933;52.492;13.434;2022-08-21T02:12:55;9.98;;;4.80;;
43337;SDS011;28933;52.492;13.434;2022-08-21T02:15:22;8.23;;;4.50;;
43337;SDS011;28933;52.492;13.434;2022-08-21T02:17:50;6.15;;;4.13;;
43337;SDS011;28933;52.492;13.434;2022-08-21T02:20:23;5.60;;;4.60;;
43337;SDS011;28933;52.492;13.434;2022-08-21T02:22:55;5.40;;;4.05;;
43337;SDS011;28933;52.492;13.434;2022-08-21T02:25:21;9.18;;;3.92;;
43337;SDS011;28933;52.492;13.434;2022-08-21T02:27:48;9.70;;;4.05;;
43337;SDS011;28933;52.492;13.434;2022-08-21T02:30:17;5.35;;;3.60;;
43337;SDS011;28933;52.492;13.434;2022-08-21T02:32:44;6.70;;;3.92;;
43337;SDS011;28933;52.492;13.434;2022-08-21T02:35:11;5.50;;;3.50;;
43337;SDS011;28933;52.492;13.434;2022-08-21T02:38:11;5.85;;;3.95;;
43337;SDS011;28933;52.492;13.434;2022-08-21T02:40:31;4.82;;;3.97;;
43337;SDS011;28933;52.492;13.434;2022-08-21T02:43:00;4.60;;;3.65;;
43337;SDS011;28933;52.492;13.434;2022-08-21T02:45:28;9.07;;;3.92;;
43337;SDS011;28933;52.492;13.434;2022-08-21T02:47:55;36.13;;;4.88;;
43337;SDS011;28933;52.492;13.434;2022-08-21T02:50:30;4.43;;;3.35;;
43337;SDS011;28933;52.492;13.434;2022-08-21T02:52:57;6.22;;;4.15;;
43337;SDS011;28933;52.492;13.434;2022-08-21T02:55:25;5.22;;;3.55;;
43337;SDS011;28933;52.492;13.434;2022-08-21T02:57:53;6.82;;;3.78;;
43337;SDS011;28933;52.492;13.434;2022-08-21T03:00:22;6.22;;;3.22;;
43337;SDS011;28933;52.492;13.434;2022-08-21T03:02:49;5.10;;;3.85;;
43337;SDS011;28933;52.492;13.434;2022-08-21T03:05:15;10.90;;;3.70;;
43337;SDS011;28933;52.492;13.434;2022-08-21T03:07:42;4.38;;;3.10;;
43337;SDS011;28933;52.492;13.434;2022-08-21T03:10:09;5.35;;;3.90;;
43337;SDS011;28933;52.492;13.434;2022-08-21T03:12:35;5.55;;;4.10;;
43337;SDS011;28933;52.492;13.434;2022-08-21T03:15:05;5.75;;;3.58;;
43337;SDS011;28933;52.492;13.434;2022-08-21T03:17:32;4.35;;;2.97;;
43337;SDS011;28933;52.492;13.434;2022-08-21T03:19:59;6.20;;;3.30;;
43337;SDS011;28933;52.492;13.434;2022-08-21T03:22:26;6.00;;;3.30;;
43337;SDS011;28933;52.492;13.434;2022-08-21T03:24:52;8.25;;;3.42;;
43337;SDS011;28933;52.492;13.434;2022-08-21T03:27:18;5.30;;;3.17;;
43337;SDS011;28933;52.492;13.434;2022-08-21T03:29:44;7.25;;;3.85;;
43337;SDS011;28933;52.492;13.434;2022-08-21T03:32:10;5.20;;;2.97;;
43337;SDS011;28933;52.492;13.434;2022-08-21T03:34:37;6.25;;;3.30;;
43337;SDS011;28933;52.492;13.434;2022-08-21T03:37:04;5.65;;;3.58;;
43337;SDS011;28933;52.492;13.434;2022-08-21T03:39:32;4.80;;;3.15;;
43337;SDS011;28933;52.492;13.434;2022-08-21T03:41:59;8.07;;;3.53;;
43337;SDS011;28933;52.492;13.434;2022-08-21T03:44:25;6.68;;;3.45;;
43337;SDS011;28933;52.492;13.434;2022-08-21T03:46:54;4.10;;;2.95;;
43337;SDS011;28933;52.492;13.434;2022-08-21T03:49:20;6.40;;;3.40;;
43337;SDS011;28933;52.492;13.434;2022-08-21T03:51:46;7.70;;;3.60;;
43337;SDS011;28933;52.492;13.434;2022-08-21T03:54:11;5.00;;;2.97;;
43337;SDS011;28933;52.492;13.434;2022-08-21T03:56:37;6.20;;;3.10;;
43337;SDS011;28933;52.492;13.434;2022-08-21T03:59:02;5.38;;;3.00;;
43337;SDS011;28933;52.492;13.434;2022-08-21T04:01:28;7.28;;;3.22;;
43337;SDS011;28933;52.492;13.434;2022-08-21T04:03:54;7.40;;;3.33;;
43337;SDS011;28933;52.492;13.434;2022-08-21T04:06:20;5.22;;;3.20;;
43337;SDS011;28933;52.492;13.434;2022-08-21T04:08:45;5.88;;;3.42;;
43337;SDS011;28933;52.492;13.434;2022-08-21T04:11:12;7.10;;;3.47;;
43337;SDS011;28933;52.492;13.434;2022-08-21T04:13:38;8.82;;;3.38;;
43337;SDS011;28933;52.492;13.434;2022-08-21T04:16:05;6.47;;;3.55;;
43337;SDS011;28933;52.492;13.434;2022-08-21T04:18:31;5.90;;;3.20;;
43337;SDS011;28933;52.492;13.434;2022-08-21T04:20:57;6.32;;;3.80;;
43337;SDS011;28933;52.492;13.434;2022-08-21T04:23:24;6.97;;;3.92;;
43337;SDS011;28933;52.492;13.434;2022-08-21T04:25:54;6.95;;;3.40;;
43337;SDS011;28933;52.492;13.434;2022-08-21T04:28:21;7.82;;;3.50;;
43337;SDS011;28933;52.492;13.434;2022-08-21T04:30:47;9.43;;;3.35;;
43337;SDS011;28933;52.492;13.434;2022-08-21T04:33:14;7.47;;;3.90;;
43337;SDS011;28933;52.492;13.434;2022-08-21T04:35:40;8.25;;;3.83;;
43337;SDS011;28933;52.492;13.434;2022-08-21T04:38:07;11.05;;;3.85;;
43337;SDS011;28933;52.492;13.434;2022-08-21T04:40:32;6.97;;;2.97;;
43337;SDS011;28933;52.492;13.434;2022-08-21T04:43:01;5.82;;;3.25;;
43337;SDS011;28933;52.492;13.434;2022-08-21T04:45:31;8.30;;;3.00;;
43337;SDS011;28933;52.492;13.434;2022-08-21T04:47:59;6.40;;;3.67;;
43337;SDS011;28933;52.492;13.434;2022-08-21T04:56:06;6.40;;;3.08;;
43337;SDS011;28933;52.492;13.434;2022-08-21T04:58:45;6.93;;;3.00;;
43337;SDS011;28933;52.492;13.434;2022-08-21T05:01:21;5.38;;;2.75;;
43337;SDS011;28933;52.492;13.434;2022-08-21T05:03:50;6.65;;;2.92;;
43337;SDS011;28933;52.492;13.434;2022-08-21T05:06:20;6.30;;;3.13;;
43337;SDS011;28933;52.492;13.434;2022-08-21T05:08:46;14.40;;;2.92;;
43337;SDS011;28933;52.492;13.434;2022-08-21T05:11:17;5.15;;;2.95;;
43337;SDS011;28933;52.492;13.434;2022-08-21T05:13:44;4.32;;;2.90;;
43337;SDS011;28933;52.492;13.434;2022-08-21T05:16:10;7.53;;;3.10;;
43337;SDS011;28933;52.492;13.434;2022-08-21T05:18:36;5.45;;;2.78;;
43337;SDS011;28933;52.492;13.434;2022-08-21T05:21:03;5.85;;;2.97;;
43337;SDS011;28933;52.492;13.434;2022-08-21T05:23:29;9.10;;;3.20;;
43337;SDS011;28933;52.492;13.434;2022-08-21T05:25:54;7.55;;;2.60;;
43337;SDS011;28933;52.492;13.434;2022-08-21T05:28:20;6.45;;;2.70;;
43337;SDS011;28933;52.492;13.434;2022-08-21T05:30:46;6.80;;;3.35;;
43337;SDS011;28933;52.492;13.434;2022-08-21T05:33:12;6.40;;;2.92;;
43337;SDS011;28933;52.492;13.434;2022-08-21T05:35:38;7.53;;;3.00;;
43337;SDS011;28933;52.492;13.434;2022-08-21T05:38:05;7.07;;;2.80;;
43337;SDS011;28933;52.492;13.434;2022-08-21T05:40:31;3.67;;;2.05;;
43337;SDS011;28933;52.492;13.434;2022-08-21T05:42:57;6.18;;;2.97;;
43337;SDS011;28933;52.492;13.434;2022-08-21T05:45:25;7.13;;;3.30;;
43337;SDS011;28933;52.492;13.434;2022-08-21T05:47:53;3.63;;;2.30;;
43337;SDS011;28933;52.492;13.434;2022-08-21T05:50:18;4.97;;;2.63;;
43337;SDS011;28933;52.492;13.434;2022-08-21T05:52:44;6.30;;;3.13;;
43337;SDS011;28933;52.492;13.434;2022-08-21T05:55:10;5.43;;;2.60;;
43337;SDS011;28933;52.492;13.434;2022-08-21T05:57:35;7.00;;;3.00;;
43337;SDS011;28933;52.492;13.434;2022-08-21T06:00:01;4.55;;;2.40;;
43337;SDS011;28933;52.492;13.434;2022-08-21T06:02:28;6.72;;;2.67;;
43337;SDS011;28933;52.492;13.434;2022-08-21T06:04:55;15.23;;;3.88;;
43337;SDS011;28933;52.492;13.434;2022-08-21T06:07:22;5.88;;;2.60;;
43337;SDS011;28933;52.492;13.434;2022-08-21T06:09:47;4.95;;;2.80;;
43337;SDS011;28933;52.492;13.434;2022-08-21T06:12:13;7.35;;;2.63;;
43337;SDS011;28933;52.492;13.434;2022-08-21T06:14:39;4.22;;;2.20;;
43337;SDS011;28933;52.492;13.434;2022-08-21T06:17:07;6.75;;;2.38;;
43337;SDS011;28933;52.492;13.434;2022-08-21T06:19:34;4.70;;;2.33;;
43337;SDS011;28933;52.492;13.434;2022-08-21T06:22:01;8.73;;;2.72;;
43337;SDS011;28933;52.492;13.434;2022-08-21T06:24:27;5.07;;;2.33;;
43337;SDS011;28933;52.492;13.434;2022-08-21T06:26:54;6.32;;;2.25;;
43337;SDS011;28933;52.492;13.434;2022-08-21T06:29:20;5.28;;;2.58;;
43337;SDS011;28933;52.492;13.434;2022-08-21T06:31:46;5.78;;;2.70;;
43337;SDS011;28933;52.492;13.434;2022-08-21T06:34:13;5.78;;;2.95;;
43337;SDS011;28933;52.492;13.434;2022-08-21T06:36:39;6.15;;;3.00;;
43337;SDS011;28933;52.492;13.434;2022-08-21T06:39:05;20.80;;;11.95;;
43337;SDS011;28933;52.492;13.434;2022-08-21T06:41:31;11.70;;;5.50;;
43337;SDS011;28933;52.492;13.434;2022-08-21T06:43:57;10.00;;;4.15;;
43337;SDS011;28933;52.492;13.434;2022-08-21T06:46:23;9.18;;;3.85;;
43337;SDS011;28933;52.492;13.434;2022-08-21T06:48:51;7.30;;;3.28;;
43337;SDS011;28933;52.492;13.434;2022-08-21T06:51:17;10.27;;;2.95;;
43337;SDS011;28933;52.492;13.434;2022-08-21T06:53:42;5.10;;;2.50;;
43337;SDS011;28933;52.492;13.434;2022-08-21T06:56:08;7.13;;;3.95;;
43337;SDS011;28933;52.492;13.434;2022-08-21T06:58:34;7.93;;;3.10;;
43337;SDS011;28933;52.492;13.434;2022-08-21T07:01:00;6.80;;;3.08;;
43337;SDS011;28933;52.492;13.434;2022-08-21T07:03:28;6.70;;;3.20;;
43337;SDS011;28933;52.492;13.434;2022-08-21T07:05:55;6.18;;;3.00;;
43337;SDS011;28933;52.492;13.434;2022-08-21T07:08:24;7.63;;;3.00;;
43337;SDS011;28933;52.492;13.434;2022-08-21T07:10:52;7.70;;;3.55;;
43337;SDS011;28933;52.492;13.434;2022-08-21T07:13:19;6.95;;;2.95;;
43337;SDS011;28933;52.492;13.434;2022-08-21T07:15:45;6.07;;;3.22;;
43337;SDS011;28933;52.492;13.434;2022-08-21T07:18:11;5.60;;;2.15;;
43337;SDS011;28933;52.492;13.434;2022-08-21T07:20:37;5.40;;;2.47;;
43337;SDS011;28933;52.492;13.434;2022-08-21T07:23:05;8.98;;;2.88;;
43337;SDS011;28933;52.492;13.434;2022-08-21T07:25:33;7.45;;;2.70;;
43337;SDS011;28933;52.492;13.434;2022-08-21T07:28:00;8.00;;;2.63;;
43337;SDS011;28933;52.492;13.434;2022-08-21T07:30:26;6.78;;;2.47;;
43337;SDS011;28933;52.492;13.434;2022-08-21T07:32:53;5.85;;;2.83;;
43337;SDS011;28933;52.492;13.434;2022-08-21T07:35:19;6.97;;;2.38;;
43337;SDS011;28933;52.492;13.434;2022-08-21T07:37:45;5.82;;;2.90;;
43337;SDS011;28933;52.492;13.434;2022-08-21T07:40:12;5.13;;;2.30;;
43337;SDS011;28933;52.492;13.434;2022-08-21T07:42:42;6.80;;;2.72;;
43337;SDS011;28933;52.492;13.434;2022-08-21T07:45:10;4.95;;;2.33;;
43337;SDS011;28933;52.492;13.434;2022-08-21T07:47:36;5.50;;;2.22;;
43337;SDS011;28933;52.492;13.434;2022-08-21T07:50:03;6.00;;;2.20;;
43337;SDS011;28933;52.492;13.434;2022-08-21T07:52:29;5.30;;;2.33;;
43337;SDS011;28933;52.492;13.434;2022-08-21T07:54:55;4.85;;;2.47;;
43337;SDS011;28933;52.492;13.434;2022-08-21T07:57:21;4.43;;;2.40;;
43337;SDS011;28933;52.492;13.434;2022-08-21T07:59:46;5.80;;;2.40;;
43337;SDS011;28933;52.492;13.434;2022-08-21T08:02:21;3.17;;;2.03;;
43337;SDS011;28933;52.492;13.434;2022-08-21T08:04:50;7.78;;;1.98;;
43337;SDS011;28933;52.492;13.434;2022-08-21T08:07:16;3.22;;;1.75;;
43337;SDS011;28933;52.492;13.434;2022-08-21T08:09:42;7.35;;;1.92;;
43337;SDS011;28933;52.492;13.434;2022-08-21T08:12:09;4.55;;;2.30;;
43337;SDS011;28933;52.492;13.434;2022-08-21T08:14:36;5.20;;;2.13;;
43337;SDS011;28933;52.492;13.434;2022-08-21T08:17:01;2.80;;;1.70;;
43337;SDS011;28933;52.492;13.434;2022-08-21T08:19:27;4.30;;;1.77;;
43337;SDS011;28933;52.492;13.434;2022-08-21T08:21:53;4.75;;;2.00;;
43337;SDS011;28933;52.492;13.434;2022-08-21T08:24:19;4.32;;;1.90;;
43337;SDS011;28933;52.492;13.434;2022-08-21T08:26:45;6.25;;;1.70;;
43337;SDS011;28933;52.492;13.434;2022-08-21T08:29:11;4.93;;;2.33;;
43337;SDS011;28933;52.492;13.434;2022-08-21T08:31:37;5.60;;;2.33;;
43337;SDS011;28933;52.492;13.434;2022-08-21T08:34:03;5.18;;;2.03;;
43337;SDS011;28933;52.492;13.434;2022-08-21T08:36:34;5.25;;;2.17;;
43337;SDS011;28933;52.492;13.434;2022-08-21T08:39:03;4.73;;;1.87;;
43337;SDS011;28933;52.492;13.434;2022-08-21T08:41:30;4.03;;;1.80;;
43337;SDS011;28933;52.492;13.434;2022-08-21T08:43:58;6.68;;;2.00;;
43337;SDS011;28933;52.492;13.434;2022-08-21T08:46:30;6.75;;;2.00;;
43337;SDS011;28933;52.492;13.434;2022-08-21T08:54:25;4.32;;;2.35;;
43337;SDS011;28933;52.492;13.434;2022-08-21T08:56:57;6.78;;;2.45;;
43337;SDS011;28933;52.492;13.434;2022-08-21T08:59:41;5.45;;;2.50;;
43337;SDS011;28933;52.492;13.434;2022-08-21T09:02:13;3.92;;;2.22;;
43337;SDS011;28933;52.492;13.434;2022-08-21T09:04:41;4.07;;;1.70;;
43337;SDS011;28933;52.492;13.434;2022-08-21T09:10:34;3.38;;;1.88;;
43337;SDS011;28933;52.492;13.434;2022-08-21T09:27:10;3.22;;;1.90;;
43337;SDS011;28933;52.492;13.434;2022-08-21T09:29:33;4.10;;;1.70;;
43337;SDS011;28933;52.492;13.434;2022-08-21T09:32:14;6.35;;;2.28;;
43337;SDS011;28933;52.492;13.434;2022-08-21T09:34:57;4.15;;;1.88;;
43337;SDS011;28933;52.492;13.434;2022-08-21T09:37:27;8.25;;;2.03;;
43337;SDS011;28933;52.492;13.434;2022-08-21T09:39:55;5.75;;;1.92;;
43337;SDS011;28933;52.492;13.434;2022-08-21T09:42:26;4.13;;;1.80;;
43337;SDS011;28933;52.492;13.434;2022-08-21T09:47:36;6.13;;;2.50;;
43337;SDS011;28933;52.492;13.434;2022-08-21T09:50:12;6.05;;;2.72;;
43337;SDS011;28933;52.492;13.434;2022-08-21T09:52:52;5.32;;;2.60;;
43337;SDS011;28933;52.492;13.434;2022-08-21T09:55:39;4.00;;;2.33;;
43337;SDS011;28933;52.492;13.434;2022-08-21T09:58:33;4.05;;;2.30;;
43337;SDS011;28933;52.492;13.434;2022-08-21T10:01:01;4.43;;;1.65;;
43337;SDS011;28933;52.492;13.434;2022-08-21T10:03:29;6.47;;;2.40;;
43337;SDS011;28933;52.492;13.434;2022-08-21T10:06:04;3.42;;;1.70;;
43337;SDS011;28933;52.492;13.434;2022-08-21T10:08:35;5.85;;;2.70;;
43337;SDS011;28933;52.492;13.434;2022-08-21T10:11:09;4.15;;;1.73;;
43337;SDS011;28933;52.492;13.434;2022-08-21T10:13:41;3.15;;;1.88;;
43337;SDS011;28933;52.492;13.434;2022-08-21T10:16:32;3.65;;;2.03;;
43337;SDS011;28933;52.492;13.434;2022-08-21T10:22:22;3.90;;;2.03;;
43337;SDS011;28933;52.492;13.434;2022-08-21T10:25:12;5.28;;;2.40;;
43337;SDS011;28933;52.492;13.434;2022-08-21T10:35:40;3.53;;;1.83;;
43337;SDS011;28933;52.492;13.434;2022-08-21T10:46:50;3.78;;;1.95;;
43337;SDS011;28933;52.492;13.434;2022-08-21T10:54:55;4.07;;;1.90;;
43337;SDS011;28933;52.492;13.434;2022-08-21T11:00:21;2.42;;;1.38;;
43337;SDS011;28933;52.492;13.434;2022-08-21T11:05:47;4.72;;;1.65;;
43337;SDS011;28933;52.492;13.434;2022-08-21T11:08:18;2.53;;;1.45;;
43337;SDS011;28933;52.492;13.434;2022-08-21T11:10:50;3.63;;;1.30;;
43337;SDS011;28933;52.492;13.434;2022-08-21T11:18:47;5.47;;;1.80;;
43337;SDS011;28933;52.492;13.434;2022-08-21T11:26:44;4.20;;;1.92;;
43337;SDS011;28933;52.492;13.434;2022-08-21T11:29:30;3.53;;;1.65;;
43337;SDS011;28933;52.492;13.434;2022-08-21T11:40:12;4.15;;;2.00;;
43337;SDS011;28933;52.492;13.434;2022-08-21T11:51:13;1.75;;;1.20;;
43337;SDS011;28933;52.492;13.434;2022-08-21T11:53:50;2.00;;;1.20;;
43337;SDS011;28933;52.492;13.434;2022-08-21T11:56:28;1.30;;;0.90;;
43337;SDS011;28933;52.492;13.434;2022-08-21T11:59:05;2.67;;;1.00;;
43337;SDS011;28933;52.492;13.434;2022-08-21T12:01:35;3.03;;;2.10;;
43337;SDS011;28933;52.492;13.434;2022-08-21T12:04:49;3.78;;;1.30;;
43337;SDS011;28933;52.492;13.434;2022-08-21T12:07:29;4.43;;;1.50;;
43337;SDS011;28933;52.492;13.434;2022-08-21T12:09:57;3.17;;;1.60;;
43337;SDS011;28933;52.492;13.434;2022-08-21T12:12:27;2.85;;;1.45;;
43337;SDS011;28933;52.492;13.434;2022-08-21T12:17:56;3.83;;;1.42;;
43337;SDS011;28933;52.492;13.434;2022-08-21T12:20:43;9.88;;;2.28;;
43337;SDS011;28933;52.492;13.434;2022-08-21T12:23:30;1.65;;;1.20;;
43337;SDS011;28933;52.492;13.434;2022-08-21T12:28:34;1.75;;;1.20;;
43337;SDS011;28933;52.492;13.434;2022-08-21T12:31:00;2.13;;;1.10;;
43337;SDS011;28933;52.492;13.434;2022-08-21T12:33:27;2.45;;;1.27;;
43337;SDS011;28933;52.492;13.434;2022-08-21T12:36:30;1.98;;;1.20;;
43337;SDS011;28933;52.492;13.434;2022-08-21T12:38:52;3.17;;;1.55;;
43337;SDS011;28933;52.492;13.434;2022-08-21T12:41:20;2.35;;;1.38;;
43337;SDS011;28933;52.492;13.434;2022-08-21T12:43:53;2.03;;;1.45;;
43337;SDS011;28933;52.492;13.434;2022-08-21T12:46:34;2.83;;;1.25;;
43337;SDS011;28933;52.492;13.434;2022-08-21T12:49:14;1.90;;;1.20;;
43337;SDS011;28933;52.492;13.434;2022-08-21T12:51:55;2.47;;;1.35;;
43337;SDS011;28933;52.492;13.434;2022-08-21T12:54:28;3.72;;;1.35;;
43337;SDS011;28933;52.492;13.434;2022-08-21T12:57:02;2.17;;;1.25;;
43337;SDS011;28933;52.492;13.434;2022-08-21T12:59:30;2.80;;;1.17;;
43337;SDS011;28933;52.492;13.434;2022-08-21T13:01:57;2.58;;;1.48;;
43337;SDS011;28933;52.492;13.434;2022-08-21T13:04:43;1.90;;;1.30;;
43337;SDS011;28933;52.492;13.434;2022-08-21T13:07:11;2.38;;;1.13;;
43337;SDS011;28933;52.492;13.434;2022-08-21T13:09:47;3.50;;;1.40;;
43337;SDS011;28933;52.492;13.434;2022-08-21T13:12:17;3.35;;;1.60;;
43337;SDS011;28933;52.492;13.434;2022-08-21T13:14:45;2.15;;;1.42;;
43337;SDS011;28933;52.492;13.434;2022-08-21T13:17:14;1.95;;;1.25;;
43337;SDS011;28933;52.492;13.434;2022-08-21T13:19:58;2.17;;;1.27;;
43337;SDS011;28933;52.492;13.434;2022-08-21T13:22:26;2.88;;;1.58;;
43337;SDS011;28933;52.492;13.434;2022-08-21T13:24:52;2.72;;;1.38;;
43337;SDS011;28933;52.492;13.434;2022-08-21T13:27:29;2.88;;;1.70;;
43337;SDS011;28933;52.492;13.434;2022-08-21T13:30:03;3.03;;;1.45;;
43337;SDS011;28933;52.492;13.434;2022-08-21T13:32:40;2.08;;;1.10;;
43337;SDS011;28933;52.492;13.434;2022-08-21T13:35:09;2.60;;;1.15;;
43337;SDS011;28933;52.492;13.434;2022-08-21T13:37:38;2.22;;;1.40;;
43337;SDS011;28933;52.492;13.434;2022-08-21T13:40:06;3.60;;;1.33;;
43337;SDS011;28933;52.492;13.434;2022-08-21T13:42:34;2.45;;;1.30;;
43337;SDS011;28933;52.492;13.434;2022-08-21T13:45:00;3.85;;;1.95;;
43337;SDS011;28933;52.492;13.434;2022-08-21T13:47:25;3.13;;;2.28;;
43337;SDS011;28933;52.492;13.434;2022-08-21T13:49:51;3.47;;;2.28;;
43337;SDS011;28933;52.492;13.434;2022-08-21T13:52:26;4.10;;;2.05;;
43337;SDS011;28933;52.492;13.434;2022-08-21T13:54:53;4.25;;;2.00;;
43337;SDS011;28933;52.492;13.434;2022-08-21T13:57:25;3.75;;;1.80;;
43337;SDS011;28933;52.492;13.434;2022-08-21T14:02:53;4.07;;;1.85;;
43337;SDS011;28933;52.492;13.434;2022-08-21T14:05:28;6.05;;;2.13;;
43337;SDS011;28933;52.492;13.434;2022-08-21T14:08:41;6.47;;;2.15;;
43337;SDS011;28933;52.492;13.434;2022-08-21T14:10:49;3.17;;;1.52;;
43337;SDS011;28933;52.492;13.434;2022-08-21T14:14:03;3.25;;;1.52;;
43337;SDS011;28933;52.492;13.434;2022-08-21T14:16:14;3.22;;;1.60;;
43337;SDS011;28933;52.492;13.434;2022-08-21T14:18:46;6.40;;;1.80;;
43337;SDS011;28933;52.492;13.434;2022-08-21T14:21:22;3.42;;;1.50;;
43337;SDS011;28933;52.492;13.434;2022-08-21T14:24:05;3.92;;;1.75;;
43337;SDS011;28933;52.492;13.434;2022-08-21T14:29:10;3.03;;;1.55;;
43337;SDS011;28933;52.492;13.434;2022-08-21T14:31:39;6.28;;;1.70;;
43337;SDS011;28933;52.492;13.434;2022-08-21T14:34:05;4.25;;;1.83;;
43337;SDS011;28933;52.492;13.434;2022-08-21T14:36:30;3.75;;;1.73;;
43337;SDS011;28933;52.492;13.434;2022-08-21T14:38:56;3.78;;;2.00;;
43337;SDS011;28933;52.492;13.434;2022-08-21T14:41:23;4.72;;;2.03;;
43337;SDS011;28933;52.492;13.434;2022-08-21T14:43:53;5.20;;;2.47;;
43337;SDS011;28933;52.492;13.434;2022-08-21T14:46:26;4.10;;;1.70;;
43337;SDS011;28933;52.492;13.434;2022-08-21T14:48:54;3.75;;;1.90;;
43337;SDS011;28933;52.492;13.434;2022-08-21T14:51:20;5.95;;;2.35;;
43337;SDS011;28933;52.492;13.434;2022-08-21T14:53:46;4.07;;;2.50;;
43337;SDS011;28933;52.492;13.434;2022-08-21T14:56:12;4.63;;;2.70;;
43337;SDS011;28933;52.492;13.434;2022-08-21T14:58:40;5.03;;;2.70;;
43337;SDS011;28933;52.492;13.434;2022-08-21T15:01:09;5.70;;;3.00;;
43337;SDS011;28933;52.492;13.434;2022-08-21T15:03:38;4.18;;;2.58;;
43337;SDS011;28933;52.492;13.434;2022-08-21T15:06:04;5.28;;;3.00;;
43337;SDS011;28933;52.492;13.434;2022-08-21T15:08:31;4.53;;;2.13;;
43337;SDS011;28933;52.492;13.434;2022-08-21T15:10:58;4.03;;;2.67;;
43337;SDS011;28933;52.492;13.434;2022-08-21T15:13:25;3.60;;;2.20;;
43337;SDS011;28933;52.492;13.434;2022-08-21T15:15:51;3.67;;;2.22;;
43337;SDS011;28933;52.492;13.434;2022-08-21T15:18:18;6.25;;;2.20;;
43337;SDS011;28933;52.492;13.434;2022-08-21T15:20:47;3.85;;;2.00;;
43337;SDS011;28933;52.492;13.434;2022-08-21T15:23:14;7.43;;;3.05;;
43337;SDS011;28933;52.492;13.434;2022-08-21T15:25:41;4.75;;;3.03;;
43337;SDS011;28933;52.492;13.434;2022-08-21T15:28:09;4.38;;;1.98;;
43337;SDS011;28933;52.492;13.434;2022-08-21T15:30:35;5.07;;;2.63;;
43337;SDS011;28933;52.492;13.434;2022-08-21T15:33:01;5.65;;;2.20;;
43337;SDS011;28933;52.492;13.434;2022-08-21T15:35:27;3.42;;;1.75;;
43337;SDS011;28933;52.492;13.434;2022-08-21T15:37:52;4.25;;;2.03;;
43337;SDS011;28933;52.492;13.434;2022-08-21T15:40:18;3.45;;;1.88;;
43337;SDS011;28933;52.492;13.434;2022-08-21T15:42:43;4.57;;;2.40;;
43337;SDS011;28933;52.492;13.434;2022-08-21T15:45:10;3.05;;;2.03;;
43337;SDS011;28933;52.492;13.434;2022-08-21T15:47:37;4.82;;;2.00;;
43337;SDS011;28933;52.492;13.434;2022-08-21T15:50:05;3.92;;;2.20;;
43337;SDS011;28933;52.492;13.434;2022-08-21T15:52:33;5.03;;;2.00;;
43337;SDS011;28933;52.492;13.434;2022-08-21T15:54:58;3.92;;;2.17;;
43337;SDS011;28933;52.492;13.434;2022-08-21T15:57:24;4.55;;;2.25;;
43337;SDS011;28933;52.492;13.434;2022-08-21T15:59:52;3.72;;;2.30;;
43337;SDS011;28933;52.492;13.434;2022-08-21T16:02:23;3.95;;;1.70;;
43337;SDS011;28933;52.492;13.434;2022-08-21T16:04:52;5.70;;;2.45;;
43337;SDS011;28933;52.492;13.434;2022-08-21T16:07:19;7.57;;;2.10;;
43337;SDS011;28933;52.492;13.434;2022-08-21T16:09:45;4.20;;;2.25;;
43337;SDS011;28933;52.492;13.434;2022-08-21T16:12:12;5.65;;;2.50;;
43337;SDS011;28933;52.492;13.434;2022-08-21T16:15:00;3.40;;;1.98;;
43337;SDS011;28933;52.492;13.434;2022-08-21T16:17:32;3.50;;;2.22;;
43337;SDS011;28933;52.492;13.434;2022-08-21T16:20:00;4.45;;;2.25;;
43337;SDS011;28933;52.492;13.434;2022-08-21T16:22:28;5.45;;;2.00;;
43337;SDS011;28933;52.492;13.434;2022-08-21T16:24:54;6.93;;;2.40;;